Time;durP1;ratioP1;P1;durP2;ratioP2;P2;SDS_P1;SDS_P2;PMS_P1;PMS_P2;Temp;Humidity;BMP_temperature;BMP_pressure;BME280_temperature;BME280_humidity;BME280_pressure;Samples;Min_cycle;Max_cycle;Signal;HPM_P1;HPM_P2
2023/08/15 00:01:59;;;;;;;14.00;8.90;;;23.30;31.60;;;;;;5006525;28;20494;-66
2023/08/15 00:04:27;;;;;;;10.43;8.30;;;23.40;31.60;;;;;;5007862;28;20473;-66
2023/08/15 00:06:54;;;;;;;9.60;7.97;;;23.40;31.70;;;;;;5007337;28;20452;-66
2023/08/15 00:09:20;;;;;;;13.40;9.53;;;23.40;31.60;;;;;;4995528;28;21838;-66
2023/08/15 00:11:47;;;;;;;10.70;8.20;;;23.40;31.70;;;;;;5003234;28;20463;-65
2023/08/15 00:14:16;;;;;;;10.03;8.20;;;23.40;31.50;;;;;;5004565;28;20468;-66
2023/08/15 00:16:43;;;;;;;10.03;7.20;;;23.40;31.40;;;;;;5006259;28;20874;-66
2023/08/15 00:19:09;;;;;;;11.30;7.90;;;23.40;31.30;;;;;;5004178;28;20495;-66
2023/08/15 00:21:36;;;;;;;12.73;8.30;;;23.40;31.30;;;;;;5005252;28;20490;-66
2023/08/15 00:24:03;;;;;;;12.00;9.10;;;23.40;31.30;;;;;;5004375;28;20467;-66
2023/08/15 00:26:29;;;;;;;10.47;9.13;;;23.30;31.80;;;;;;5008333;28;20483;-66
2023/08/15 00:28:58;;;;;;;11.20;8.80;;;23.30;32.10;;;;;;5003600;28;20483;-66
2023/08/15 00:31:26;;;;;;;10.77;9.00;;;23.30;32.70;;;;;;5003942;28;20480;-66
2023/08/15 00:33:53;;;;;;;12.30;9.23;;;23.30;33.20;;;;;;5005722;28;20475;-66
2023/08/15 00:36:19;;;;;;;10.30;9.20;;;23.20;33.30;;;;;;5007669;28;20476;-66
2023/08/15 00:38:46;;;;;;;10.23;9.10;;;23.20;33.50;;;;;;5006751;28;20490;-65
2023/08/15 00:41:13;;;;;;;10.37;9.27;;;23.20;33.60;;;;;;5004339;28;20822;-65
2023/08/15 00:43:39;;;;;;;11.00;9.53;;;23.20;33.90;;;;;;5005502;28;20468;-66
2023/08/15 00:46:08;;;;;;;11.47;9.23;;;23.20;34.00;;;;;;5006827;28;21164;-66
2023/08/15 00:48:37;;;;;;;11.23;9.87;;;23.20;34.20;;;;;;5006882;28;20490;-65
2023/08/15 00:51:04;;;;;;;15.60;9.07;;;23.20;34.50;;;;;;5006199;28;20471;-66
2023/08/15 00:53:33;;;;;;;11.00;9.70;;;23.20;34.50;;;;;;5009985;28;20471;-66
2023/08/15 00:56:00;;;;;;;15.40;10.47;;;23.10;34.70;;;;;;5009173;28;20487;-66
2023/08/15 00:58:29;;;;;;;10.93;9.70;;;23.10;34.80;;;;;;5009334;28;20479;-66
2023/08/15 01:00:56;;;;;;;10.83;9.73;;;23.10;34.70;;;;;;5011246;28;20463;-66
2023/08/15 01:03:23;;;;;;;11.23;9.80;;;23.10;34.60;;;;;;5009132;28;20472;-65
2023/08/15 01:05:51;;;;;;;11.73;9.60;;;23.10;34.60;;;;;;5012787;28;20470;-67
2023/08/15 01:08:18;;;;;;;10.90;9.83;;;23.10;34.50;;;;;;5010642;28;20487;-65
2023/08/15 01:10:45;;;;;;;15.53;9.73;;;23.10;34.40;;;;;;5008491;28;20479;-65
2023/08/15 01:13:18;;;;;;;12.97;10.00;;;23.10;34.40;;;;;;5006474;28;20486;-65
2023/08/15 01:15:52;;;;;;;10.57;8.67;;;23.10;34.70;;;;;;5010227;28;20483;-65
2023/08/15 01:18:27;;;;;;;11.07;8.80;;;23.10;34.50;;;;;;5007849;28;20483;-66
2023/08/15 01:20:57;;;;;;;12.80;9.67;;;23.10;34.50;;;;;;5010973;28;20824;-66
2023/08/15 01:23:31;;;;;;;11.43;9.50;;;23.10;34.30;;;;;;5007165;28;20457;-66
2023/08/15 01:25:59;;;;;;;13.20;9.30;;;23.10;34.20;;;;;;5009706;28;20478;-67
2023/08/15 01:28:25;;;;;;;15.80;10.40;;;23.10;34.10;;;;;;5009097;28;20483;-66
2023/08/15 01:30:57;;;;;;;10.40;9.30;;;23.10;34.20;;;;;;5006526;28;20467;-66
2023/08/15 01:33:30;;;;;;;10.30;9.30;;;23.10;34.40;;;;;;5010301;28;20468;-66
2023/08/15 01:36:02;;;;;;;10.70;9.60;;;23.00;34.60;;;;;;5011144;28;20492;-66
2023/08/15 01:38:35;;;;;;;13.67;9.93;;;23.00;34.50;;;;;;5010299;28;20991;-66
2023/08/15 01:41:06;;;;;;;10.53;9.53;;;23.00;34.70;;;;;;5010354;28;20463;-66
2023/08/15 01:43:36;;;;;;;10.60;9.30;;;23.00;34.80;;;;;;5010213;28;20468;-66
2023/08/15 01:46:03;;;;;;;11.87;9.30;;;23.00;34.70;;;;;;5008465;28;20452;-66
2023/08/15 01:48:30;;;;;;;14.47;9.37;;;23.00;34.80;;;;;;5006443;28;20482;-66
2023/08/15 01:50:56;;;;;;;12.10;9.30;;;23.00;34.80;;;;;;5008784;28;21232;-66
2023/08/15 01:53:23;;;;;;;11.47;9.73;;;22.90;34.80;;;;;;5007431;28;20471;-66
2023/08/15 01:55:50;;;;;;;11.27;10.20;;;22.90;34.90;;;;;;5010136;28;20468;-66
2023/08/15 01:58:18;;;;;;;11.13;9.57;;;22.90;35.00;;;;;;5009897;28;20577;-66
2023/08/15 02:00:45;;;;;;;12.83;9.73;;;22.80;34.90;;;;;;5005931;28;20482;-66
2023/08/15 02:03:12;;;;;;;13.07;10.40;;;22.80;35.30;;;;;;5008874;28;20456;-66
2023/08/15 02:05:38;;;;;;;11.00;9.43;;;22.70;35.50;;;;;;5008729;28;20487;-66
2023/08/15 02:08:05;;;;;;;11.13;9.30;;;22.60;35.60;;;;;;5007061;28;20515;-66
2023/08/15 02:10:32;;;;;;;11.07;9.47;;;22.60;35.70;;;;;;5009253;28;20464;-66
2023/08/15 02:12:59;;;;;;;11.97;9.67;;;22.60;35.90;;;;;;5004448;28;20464;-66
2023/08/15 02:15:27;;;;;;;10.90;9.77;;;22.50;35.90;;;;;;5009071;28;20460;-66
2023/08/15 02:17:54;;;;;;;12.90;10.77;;;22.50;36.10;;;;;;5007888;28;20484;-66
2023/08/15 02:20:20;;;;;;;12.57;10.33;;;22.50;36.10;;;;;;5010933;28;20464;-66
2023/08/15 02:22:47;;;;;;;11.57;9.93;;;22.40;36.20;;;;;;5010330;28;20475;-66
2023/08/15 02:25:14;;;;;;;11.57;9.53;;;22.40;36.20;;;;;;5011301;28;20464;-67
2023/08/15 02:27:40;;;;;;;11.37;10.20;;;22.40;36.10;;;;;;5018556;28;20482;-66
2023/08/15 02:30:09;;;;;;;14.63;10.40;;;22.40;36.10;;;;;;5009821;28;20483;-67
2023/08/15 02:32:37;;;;;;;11.40;9.93;;;22.30;36.20;;;;;;5007011;28;20520;-66
2023/08/15 02:35:04;;;;;;;11.60;9.87;;;22.30;36.20;;;;;;5008849;28;21065;-66
2023/08/15 02:37:31;;;;;;;12.87;11.57;;;22.30;36.40;;;;;;5011847;28;20516;-66
2023/08/15 02:39:58;;;;;;;15.07;13.67;;;22.30;36.70;;;;;;5010657;28;20478;-66
2023/08/15 02:42:24;;;;;;;12.30;11.10;;;22.30;36.90;;;;;;5010863;28;20460;-66
2023/08/15 02:44:51;;;;;;;16.10;12.03;;;22.30;36.90;;;;;;5009276;28;20467;-66
2023/08/15 02:47:18;;;;;;;13.47;11.90;;;22.30;37.20;;;;;;5011840;28;20464;-66
2023/08/15 02:49:46;;;;;;;15.10;12.07;;;22.30;37.10;;;;;;5018203;28;20483;-66
2023/08/15 02:52:13;;;;;;;14.00;12.60;;;22.30;37.10;;;;;;5008876;28;20471;-66
2023/08/15 02:54:39;;;;;;;13.70;12.27;;;22.40;37.30;;;;;;5010742;28;20842;-66
2023/08/15 02:57:06;;;;;;;14.40;12.93;;;22.40;37.10;;;;;;5005882;28;20496;-66
2023/08/15 02:59:33;;;;;;;14.37;12.33;;;22.40;37.10;;;;;;5009749;28;20468;-66
2023/08/15 03:01:59;;;;;;;13.27;11.97;;;22.40;37.40;;;;;;5009134;28;20991;-66
2023/08/15 03:04:26;;;;;;;14.10;11.47;;;22.40;37.20;;;;;;5007682;28;20490;-66
2023/08/15 03:06:54;;;;;;;13.73;12.07;;;22.40;37.20;;;;;;5008297;28;20468;-66
2023/08/15 03:09:21;;;;;;;15.90;11.73;;;22.40;37.00;;;;;;5008462;28;20491;-66
2023/08/15 03:11:47;;;;;;;14.33;11.97;;;22.40;37.00;;;;;;5008048;28;20486;-65
2023/08/15 03:14:15;;;;;;;14.17;12.73;;;22.40;36.90;;;;;;5000022;28;20467;-65
2023/08/15 03:16:42;;;;;;;12.67;11.30;;;22.30;37.10;;;;;;5003954;28;20495;-66
2023/08/15 03:19:08;;;;;;;14.53;12.30;;;22.40;37.00;;;;;;5006882;28;20495;-66
2023/08/15 03:21:35;;;;;;;13.63;11.37;;;22.40;37.00;;;;;;5004286;28;20471;-66
2023/08/15 03:24:03;;;;;;;14.83;13.00;;;22.30;37.00;;;;;;5006949;28;20471;-66
2023/08/15 03:26:30;;;;;;;13.23;11.77;;;22.40;36.90;;;;;;5007813;28;20463;-66
2023/08/15 03:28:57;;;;;;;13.63;11.63;;;22.30;36.80;;;;;;5005809;28;21001;-66
2023/08/15 03:31:24;;;;;;;13.23;11.93;;;22.30;37.00;;;;;;5011074;28;21416;-66
2023/08/15 03:33:50;;;;;;;15.23;11.90;;;22.30;36.90;;;;;;5006661;28;20963;-66
2023/08/15 03:36:17;;;;;;;13.47;12.10;;;22.30;37.00;;;;;;5003587;28;20460;-66
2023/08/15 03:38:44;;;;;;;12.73;11.30;;;22.30;36.90;;;;;;5003239;28;20498;-66
2023/08/15 03:41:12;;;;;;;14.50;12.30;;;22.30;36.80;;;;;;5003483;28;20471;-66
2023/08/15 03:43:38;;;;;;;12.30;11.00;;;22.30;36.80;;;;;;5006097;28;20520;-66
2023/08/15 03:46:07;;;;;;;13.17;10.90;;;22.30;36.70;;;;;;5006928;28;20456;-66
2023/08/15 03:48:35;;;;;;;13.70;12.17;;;22.30;36.70;;;;;;5003377;28;20926;-66
2023/08/15 03:51:02;;;;;;;13.40;11.70;;;22.40;36.60;;;;;;5007121;28;20506;-66
2023/08/15 03:53:29;;;;;;;13.97;11.70;;;22.40;36.60;;;;;;5007342;28;20823;-66
2023/08/15 03:55:56;;;;;;;13.00;11.60;;;22.40;36.50;;;;;;5008201;28;20456;-66
2023/08/15 03:58:24;;;;;;;14.57;11.50;;;22.30;36.60;;;;;;5007913;28;20487;-66
2023/08/15 04:00:51;;;;;;;12.37;11.03;;;22.30;36.50;;;;;;4999814;28;21059;-66
2023/08/15 04:03:18;;;;;;;12.70;11.30;;;22.30;36.60;;;;;;5005655;28;20460;-66
2023/08/15 04:05:45;;;;;;;13.07;10.53;;;22.30;36.50;;;;;;5005642;28;21159;-66
2023/08/15 04:08:13;;;;;;;12.13;10.90;;;22.30;36.50;;;;;;5001961;28;21074;-66
2023/08/15 04:10:40;;;;;;;12.70;11.27;;;22.30;36.50;;;;;;5008056;28;20464;-66
2023/08/15 04:13:07;;;;;;;12.30;11.10;;;22.30;36.40;;;;;;5003697;28;20806;-66
2023/08/15 04:15:36;;;;;;;13.40;12.10;;;22.30;36.40;;;;;;5007193;28;20502;-66
2023/08/15 04:18:03;;;;;;;15.50;11.10;;;22.40;36.30;;;;;;5006200;28;20487;-65
2023/08/15 04:20:29;;;;;;;11.30;10.13;;;22.40;36.10;;;;;;5007359;28;20455;-65
2023/08/15 04:22:56;;;;;;;14.37;10.93;;;22.40;35.90;;;;;;5003141;28;20470;-65
2023/08/15 04:25:23;;;;;;;12.60;11.30;;;22.40;35.60;;;;;;5002456;28;20467;-65
2023/08/15 04:27:50;;;;;;;13.60;12.17;;;22.50;35.40;;;;;;5003446;28;20523;-66
2023/08/15 04:30:18;;;;;;;13.93;12.17;;;22.50;35.30;;;;;;5001108;28;20463;-66
2023/08/15 04:32:46;;;;;;;13.10;11.77;;;22.50;35.50;;;;;;5003592;28;20467;-66
2023/08/15 04:35:13;;;;;;;12.97;11.10;;;22.50;35.70;;;;;;5005650;28;20526;-66
2023/08/15 04:37:40;;;;;;;13.20;11.60;;;22.50;35.60;;;;;;5008234;28;20491;-66
2023/08/15 04:40:11;;;;;;;14.00;11.70;;;22.60;35.70;;;;;;5008876;28;20459;-66
2023/08/15 04:42:37;;;;;;;15.73;13.23;;;22.60;35.90;;;;;;5005733;28;20830;-66
2023/08/15 04:45:05;;;;;;;15.10;12.47;;;22.60;35.90;;;;;;5004200;28;21037;-66
2023/08/15 04:47:32;;;;;;;12.40;11.10;;;22.70;35.90;;;;;;5006625;28;20476;-66
2023/08/15 04:50:00;;;;;;;12.43;11.00;;;22.70;35.80;;;;;;5004873;28;20459;-66
2023/08/15 04:52:27;;;;;;;11.83;10.63;;;22.70;35.70;;;;;;5002485;28;20836;-65
2023/08/15 04:54:54;;;;;;;12.60;11.30;;;22.80;35.60;;;;;;5006213;28;21174;-65
2023/08/15 04:57:21;;;;;;;12.97;11.70;;;22.80;35.60;;;;;;5003394;28;20488;-65
2023/08/15 04:59:47;;;;;;;11.83;10.63;;;22.80;35.20;;;;;;5007900;28;20936;-65
2023/08/15 05:02:14;;;;;;;11.80;10.60;;;22.90;35.30;;;;;;5004253;28;20476;-66
2023/08/15 05:04:41;;;;;;;13.77;10.47;;;22.90;35.40;;;;;;5009013;28;20456;-66
2023/08/15 05:07:09;;;;;;;13.70;12.00;;;22.90;35.30;;;;;;5009767;28;20460;-66
2023/08/15 05:09:37;;;;;;;13.37;10.30;;;23.00;35.30;;;;;;5007629;28;20451;-66
2023/08/15 05:12:04;;;;;;;12.83;11.10;;;23.00;35.50;;;;;;5003315;28;20460;-66
2023/08/15 05:14:31;;;;;;;11.80;10.60;;;23.10;35.50;;;;;;5006117;28;20455;-66
2023/08/15 05:16:57;;;;;;;17.40;11.33;;;23.10;35.60;;;;;;5004174;28;21063;-67
2023/08/15 05:19:25;;;;;;;13.67;11.10;;;23.10;35.60;;;;;;5004281;28;20483;-67
2023/08/15 05:21:52;;;;;;;12.97;10.60;;;23.20;35.50;;;;;;5008416;28;20460;-67
2023/08/15 05:24:20;;;;;;;13.00;11.27;;;23.20;35.40;;;;;;5007082;28;20960;-67
2023/08/15 05:26:46;;;;;;;15.17;10.60;;;23.30;35.20;;;;;;5001454;28;20530;-66
2023/08/15 05:29:13;;;;;;;13.90;11.73;;;23.30;35.00;;;;;;5006345;28;20463;-66
2023/08/15 05:31:40;;;;;;;12.03;10.53;;;23.40;34.80;;;;;;5001009;28;20490;-66
2023/08/15 05:34:07;;;;;;;14.90;10.90;;;23.40;34.70;;;;;;4995154;28;20451;-66
2023/08/15 05:36:33;;;;;;;13.53;10.80;;;23.50;34.50;;;;;;5001860;28;20461;-68
2023/08/15 05:39:04;;;;;;;12.30;10.43;;;23.50;34.60;;;;;;5006913;28;20488;-67
2023/08/15 05:41:32;;;;;;;13.97;11.63;;;23.50;34.50;;;;;;5010297;28;20452;-68
2023/08/15 05:43:58;;;;;;;12.50;11.20;;;23.50;34.60;;;;;;5010195;28;20451;-66
2023/08/15 05:46:25;;;;;;;12.63;11.07;;;23.60;34.60;;;;;;5004428;28;20460;-65
2023/08/15 05:48:52;;;;;;;12.87;11.57;;;23.60;34.60;;;;;;5009538;28;20479;-65
2023/08/15 05:51:18;;;;;;;13.70;11.60;;;23.60;34.40;;;;;;5008466;28;20456;-66
2023/08/15 05:53:45;;;;;;;12.70;10.97;;;23.70;34.40;;;;;;5006781;28;20464;-65
2023/08/15 05:56:12;;;;;;;14.10;12.70;;;23.70;34.30;;;;;;5007298;28;20460;-66
2023/08/15 05:58:40;;;;;;;12.80;11.50;;;23.70;34.30;;;;;;5010788;28;21210;-66
2023/08/15 06:01:07;;;;;;;13.90;12.00;;;23.80;34.00;;;;;;5005230;28;20475;-66
2023/08/15 06:03:34;;;;;;;13.10;11.80;;;23.80;33.90;;;;;;5007258;28;20455;-66
2023/08/15 06:06:00;;;;;;;16.03;12.57;;;23.80;34.10;;;;;;5003442;28;20996;-66
2023/08/15 06:08:27;;;;;;;14.20;12.60;;;23.80;34.20;;;;;;5005828;28;20476;-66
2023/08/15 06:10:54;;;;;;;13.73;12.33;;;23.80;34.30;;;;;;5001129;28;20473;-66
2023/08/15 06:13:21;;;;;;;13.57;11.57;;;23.90;34.40;;;;;;5004243;28;20956;-66
2023/08/15 06:15:49;;;;;;;17.83;13.10;;;24.00;34.30;;;;;;5003528;28;20464;-66
2023/08/15 06:18:16;;;;;;;14.03;11.33;;;24.10;34.10;;;;;;5009988;28;20484;-66
2023/08/15 06:20:44;;;;;;;12.73;11.27;;;24.20;33.80;;;;;;5011156;28;20467;-66
2023/08/15 06:23:11;;;;;;;13.80;12.13;;;24.40;33.60;;;;;;5009833;28;20459;-66
2023/08/15 06:25:39;;;;;;;12.93;11.63;;;24.60;33.20;;;;;;5009623;28;20455;-66
2023/08/15 06:28:06;;;;;;;12.53;11.23;;;24.90;32.80;;;;;;5012241;28;20479;-66
2023/08/15 06:30:33;;;;;;;11.63;10.53;;;25.50;32.50;;;;;;5008005;28;20460;-69
2023/08/15 06:33:01;;;;;;;14.03;11.43;;;27.00;29.50;;;;;;4992161;28;20841;-67
2023/08/15 06:35:28;;;;;;;10.97;9.87;;;28.30;25.10;;;;;;5007834;28;20471;-67
2023/08/15 06:37:55;;;;;;;11.27;9.20;;;29.60;20.80;;;;;;5008948;28;20542;-66
2023/08/15 06:40:22;;;;;;;10.17;8.90;;;31.00;18.30;;;;;;5009255;28;20827;-66
2023/08/15 06:42:49;;;;;;;11.60;8.77;;;33.60;12.50;;;;;;5007078;28;20873;-66
2023/08/15 06:45:18;;;;;;;10.93;8.27;;;34.60;7.40;;;;;;5007759;28;20475;-67
2023/08/15 06:47:45;;;;;;;8.70;7.83;;;34.50;6.20;;;;;;5009982;28;20906;-67
2023/08/15 06:50:13;;;;;;;11.30;8.47;;;34.40;5.50;;;;;;5008627;28;20462;-65
2023/08/15 06:52:40;;;;;;;10.23;9.07;;;34.20;5.60;;;;;;5008074;28;20471;-66
2023/08/15 06:55:07;;;;;;;10.93;7.30;;;33.90;5.10;;;;;;5007301;28;20455;-66
2023/08/15 06:57:34;;;;;;;13.13;9.70;;;33.60;5.20;;;;;;5008722;28;20486;-66
2023/08/15 07:00:01;;;;;;;13.83;9.30;;;33.30;5.60;;;;;;5007875;28;20551;-68
2023/08/15 07:02:28;;;;;;;11.10;8.80;;;33.10;6.00;;;;;;5007222;28;21015;-67
2023/08/15 07:04:55;;;;;;;11.90;8.40;;;33.40;6.00;;;;;;5011677;28;20460;-66
2023/08/15 07:07:23;;;;;;;9.23;7.73;;;34.00;4.60;;;;;;5010911;28;20976;-66
2023/08/15 07:09:50;;;;;;;9.33;8.40;;;34.90;3.20;;;;;;5009274;28;20463;-66
2023/08/15 07:12:18;;;;;;;8.40;7.50;;;35.50;1.60;;;;;;5006726;28;20460;-66
2023/08/15 07:14:45;;;;;;;9.07;7.83;;;35.60;1.00;;;;;;5008964;28;20467;-66
2023/08/15 07:17:12;;;;;;;9.03;8.13;;;35.60;1.00;;;;;;5006539;28;20514;-67
2023/08/15 07:19:39;;;;;;;8.97;8.07;;;35.40;1.00;;;;;;5002823;28;20495;-65
2023/08/15 07:22:15;;;;;;;13.20;8.60;;;35.30;1.10;;;;;;5004402;28;20475;-66
2023/08/15 07:24:43;;;;;;;8.77;7.97;;;34.90;1.50;;;;;;4999914;28;20476;-66
2023/08/15 07:27:09;;;;;;;11.17;8.03;;;34.40;2.30;;;;;;5001728;28;20464;-68
2023/08/15 07:29:36;;;;;;;10.00;9.00;;;33.90;2.80;;;;;;4994545;28;20503;-65
2023/08/15 07:32:03;;;;;;;9.03;8.07;;;33.50;3.80;;;;;;4996868;28;20502;-65
2023/08/15 07:34:30;;;;;;;9.27;8.10;;;33.40;4.40;;;;;;5006038;28;20452;-65
2023/08/15 07:36:56;;;;;;;9.00;7.80;;;33.40;4.70;;;;;;5009687;28;20456;-65
2023/08/15 07:39:23;;;;;;;9.93;7.50;;;34.60;4.10;;;;;;5003869;28;20495;-66
2023/08/15 07:41:51;;;;;;;10.13;7.67;;;36.90;1.00;;;;;;5009670;28;20555;-66
2023/08/15 07:44:18;;;;;;;10.23;8.20;;;38.10;1.00;;;;;;5008714;28;20455;-66
2023/08/15 07:46:45;;;;;;;9.07;7.77;;;38.50;1.00;;;;;;5008251;28;20452;-66
2023/08/15 07:49:11;;;;;;;8.33;7.30;;;40.00;1.00;;;;;;5005228;28;20522;-66
2023/08/15 07:51:38;;;;;;;9.37;6.03;;;42.20;1.00;;;;;;5009520;28;20452;-66
2023/08/15 07:54:05;;;;;;;7.40;5.90;;;44.30;1.00;;;;;;5008648;28;20467;-66
2023/08/15 07:56:33;;;;;;;6.93;5.73;;;46.20;1.00;;;;;;5008015;28;20474;-66
2023/08/15 07:59:03;;;;;;;7.77;5.87;;;47.90;1.00;;;;;;5007080;28;20491;-66
2023/08/15 08:01:30;;;;;;;7.20;5.20;;;49.50;1.00;;;;;;5007424;28;21005;-66
2023/08/15 08:03:57;;;;;;;5.70;5.07;;;50.30;1.00;;;;;;5005657;28;21153;-66
2023/08/15 08:06:23;;;;;;;5.70;4.90;;;49.80;1.00;;;;;;5008275;28;20507;-66
2023/08/15 08:08:50;;;;;;;6.90;5.17;;;48.30;1.00;;;;;;5005541;28;20486;-66
2023/08/15 08:11:17;;;;;;;12.10;5.60;;;46.50;1.00;;;;;;5008850;28;20459;-66
2023/08/15 08:13:43;;;;;;;8.93;5.90;;;44.90;1.00;;;;;;5004749;28;20464;-65
2023/08/15 08:16:11;;;;;;;8.83;5.13;;;43.80;1.00;;;;;;5004104;28;20467;-66
2023/08/15 08:18:38;;;;;;;6.40;5.67;;;43.00;1.00;;;;;;5005050;28;20973;-66
2023/08/15 08:21:06;;;;;;;6.63;5.90;;;42.30;1.00;;;;;;5002729;28;20465;-65
2023/08/15 08:23:33;;;;;;;9.10;5.57;;;41.90;1.00;;;;;;5007262;28;20525;-66
2023/08/15 08:26:00;;;;;;;7.30;5.70;;;41.30;1.00;;;;;;5008406;28;20550;-66
2023/08/15 08:28:27;;;;;;;7.00;5.20;;;40.80;1.00;;;;;;5006059;28;20479;-66
2023/08/15 08:30:54;;;;;;;6.83;5.50;;;40.60;1.00;;;;;;5000923;28;20482;-66
2023/08/15 08:33:22;;;;;;;6.73;5.30;;;41.20;1.00;;;;;;5004253;28;20460;-66
2023/08/15 08:35:48;;;;;;;7.23;5.33;;;41.50;1.00;;;;;;5007854;28;20463;-66
2023/08/15 08:38:15;;;;;;;6.67;5.40;;;41.00;1.00;;;;;;5008088;28;20475;-66
2023/08/15 08:40:42;;;;;;;6.17;4.93;;;40.10;1.00;;;;;;5007287;28;20460;-66
2023/08/15 08:43:10;;;;;;;7.77;6.13;;;39.20;1.00;;;;;;5005830;28;20519;-66
2023/08/15 08:45:40;;;;;;;6.97;6.27;;;38.30;1.00;;;;;;5008255;28;20499;-66
2023/08/15 08:48:09;;;;;;;8.10;5.50;;;37.50;1.00;;;;;;5008668;28;20495;-66
2023/08/15 08:50:39;;;;;;;8.50;5.90;;;36.80;1.00;;;;;;5004221;28;20476;-66
2023/08/15 08:53:06;;;;;;;7.67;6.10;;;36.20;1.00;;;;;;5005997;28;20467;-66
2023/08/15 08:55:34;;;;;;;8.63;6.37;;;35.70;1.00;;;;;;5006541;28;20529;-66
2023/08/15 08:58:03;;;;;;;7.93;5.83;;;35.30;1.00;;;;;;5007654;28;20484;-66
2023/08/15 09:00:32;;;;;;;7.20;5.60;;;34.80;1.00;;;;;;5005086;28;20479;-66
2023/08/15 09:02:59;;;;;;;9.30;5.97;;;34.50;1.00;;;;;;5004248;28;20467;-66
2023/08/15 09:05:26;;;;;;;9.00;5.80;;;34.20;1.00;;;;;;5007451;28;20455;-66
2023/08/15 09:07:55;;;;;;;7.33;6.63;;;34.10;1.50;;;;;;5007348;28;20472;-66
2023/08/15 09:10:23;;;;;;;8.23;6.07;;;34.10;1.90;;;;;;5001212;28;20452;-66
2023/08/15 09:12:50;;;;;;;8.40;6.27;;;34.40;1.60;;;;;;5005494;28;20518;-66
2023/08/15 09:15:17;;;;;;;9.53;6.60;;;35.30;1.50;;;;;;5008120;28;20547;-66
2023/08/15 09:17:44;;;;;;;6.43;5.63;;;38.40;1.00;;;;;;5010800;28;20483;-66
2023/08/15 09:20:13;;;;;;;6.10;5.27;;;40.50;1.00;;;;;;5010848;28;20487;-66
2023/08/15 09:22:41;;;;;;;8.07;5.27;;;40.90;1.00;;;;;;5003876;28;20574;-66
2023/08/15 09:25:10;;;;;;;10.70;5.80;;;40.60;1.00;;;;;;5012344;28;20454;-66
2023/08/15 09:27:37;;;;;;;5.73;4.77;;;42.20;1.00;;;;;;5011123;28;20554;-66
2023/08/15 09:30:09;;;;;;;8.93;5.00;;;43.80;1.00;;;;;;5010180;28;20459;-66
2023/08/15 09:32:35;;;;;;;8.40;4.70;;;45.10;1.00;;;;;;5007876;28;20557;-66
2023/08/15 09:35:03;;;;;;;6.13;4.47;;;46.30;1.00;;;;;;5010475;28;20986;-66
2023/08/15 09:37:29;;;;;;;8.40;5.33;;;45.80;1.00;;;;;;5010041;28;20522;-66
2023/08/15 09:39:57;;;;;;;6.00;5.40;;;44.70;1.00;;;;;;5011152;28;20518;-65
2023/08/15 09:42:25;;;;;;;6.87;4.97;;;43.50;1.00;;;;;;5010550;28;20455;-65
2023/08/15 09:44:53;;;;;;;7.87;4.83;;;42.40;1.00;;;;;;5009826;28;20460;-66
2023/08/15 09:47:20;;;;;;;6.40;5.07;;;41.30;1.00;;;;;;5006111;28;20476;-66
2023/08/15 09:49:48;;;;;;;7.70;5.57;;;40.50;1.00;;;;;;5008218;28;20924;-66
2023/08/15 09:52:16;;;;;;;10.57;4.90;;;40.40;1.00;;;;;;5013126;28;20458;-66
2023/08/15 09:54:43;;;;;;;8.13;5.23;;;41.10;1.00;;;;;;5005951;28;20471;-65
2023/08/15 09:57:10;;;;;;;7.67;4.00;;;42.50;1.00;;;;;;5007230;28;20455;-65
2023/08/15 09:59:39;;;;;;;6.70;4.37;;;45.80;1.00;;;;;;5006713;28;20480;-66
2023/08/15 10:02:16;;;;;;;7.67;3.37;;;48.60;1.00;;;;;;5009315;28;20506;-66
2023/08/15 10:04:45;;;;;;;8.47;3.50;;;50.50;1.00;;;;;;5004278;28;20459;-66
2023/08/15 10:07:12;;;;;;;7.67;4.20;;;51.30;1.00;;;;;;5009325;28;20464;-66
2023/08/15 10:09:39;;;;;;;6.00;3.50;;;51.70;1.00;;;;;;5011657;28;20467;-66
2023/08/15 10:12:08;;;;;;;5.87;3.60;;;50.90;1.00;;;;;;5006631;28;20563;-66
2023/08/15 10:14:35;;;;;;;6.70;3.50;;;50.80;1.00;;;;;;5007511;28;20462;-66
2023/08/15 10:17:03;;;;;;;7.30;3.43;;;52.10;1.00;;;;;;5010243;28;20463;-66
2023/08/15 10:19:31;;;;;;;9.47;4.10;;;53.30;1.00;;;;;;5007383;28;20476;-66
2023/08/15 10:21:57;;;;;;;4.90;3.40;;;53.80;1.00;;;;;;5006688;28;20470;-65
2023/08/15 10:24:24;;;;;;;6.17;3.10;;;54.10;1.00;;;;;;5008404;28;20937;-67
2023/08/15 10:26:53;;;;;;;5.03;3.20;;;54.20;1.00;;;;;;5008192;28;20462;-66
2023/08/15 10:29:20;;;;;;;9.00;3.53;;;53.10;1.00;;;;;;5006625;28;21120;-66
2023/08/15 10:31:47;;;;;;;7.03;3.40;;;51.20;1.00;;;;;;5007002;28;21097;-66
2023/08/15 10:34:19;;;;;;;5.40;3.47;;;50.10;1.00;;;;;;5009591;28;20471;-65
2023/08/15 10:36:46;;;;;;;7.50;4.03;;;48.20;1.00;;;;;;5006173;28;20952;-65
2023/08/15 10:39:15;;;;;;;8.00;4.17;;;46.30;1.00;;;;;;5006438;28;20487;-65
2023/08/15 10:41:42;;;;;;;5.37;4.07;;;44.50;1.00;;;;;;5010212;28;20456;-65
2023/08/15 10:44:10;;;;;;;9.57;4.03;;;43.40;1.00;;;;;;5008299;28;20479;-66
2023/08/15 10:46:37;;;;;;;6.97;4.20;;;42.40;1.00;;;;;;5006615;28;20510;-66
2023/08/15 10:49:07;;;;;;;6.83;4.13;;;41.80;1.00;;;;;;5007943;28;20479;-66
2023/08/15 10:51:37;;;;;;;7.00;4.20;;;41.20;1.00;;;;;;5008881;28;20543;-66
2023/08/15 10:54:06;;;;;;;8.87;4.10;;;40.60;1.00;;;;;;5007915;28;20647;-66
2023/08/15 10:56:35;;;;;;;6.60;3.83;;;40.20;1.00;;;;;;5008105;28;20468;-66
2023/08/15 10:59:07;;;;;;;7.87;3.73;;;39.80;1.00;;;;;;5007425;28;20476;-66
2023/08/15 11:01:36;;;;;;;9.57;4.17;;;39.30;1.00;;;;;;5003532;28;20480;-66
2023/08/15 11:04:03;;;;;;;6.80;3.80;;;39.00;1.00;;;;;;5004821;28;20460;-66
2023/08/15 11:06:30;;;;;;;5.70;3.80;;;38.60;1.00;;;;;;5004668;28;20472;-66
2023/08/15 11:08:59;;;;;;;5.80;3.73;;;38.20;1.00;;;;;;5007425;28;20483;-66
2023/08/15 11:11:26;;;;;;;5.30;3.30;;;37.80;1.00;;;;;;5007159;28;20459;-65
2023/08/15 11:13:55;;;;;;;6.60;3.93;;;37.30;1.00;;;;;;5005775;28;20464;-65
2023/08/15 11:16:23;;;;;;;6.20;3.13;;;36.70;1.00;;;;;;5008067;28;20951;-65
2023/08/15 11:18:51;;;;;;;7.80;3.67;;;36.20;1.00;;;;;;5006868;28;20495;-65
2023/08/15 11:21:19;;;;;;;7.40;3.30;;;35.70;1.00;;;;;;5005927;28;20535;-66
2023/08/15 11:23:46;;;;;;;5.73;3.10;;;35.10;1.00;;;;;;4999242;28;20994;-66
2023/08/15 11:26:15;;;;;;;9.37;3.83;;;34.70;1.00;;;;;;5004511;28;20491;-66
2023/08/15 11:28:41;;;;;;;9.50;3.50;;;34.30;1.00;;;;;;5007095;28;20991;-66
2023/08/15 11:31:10;;;;;;;12.13;4.70;;;33.90;1.00;;;;;;4998673;28;20487;-66
2023/08/15 11:33:36;;;;;;;6.20;3.57;;;33.50;1.00;;;;;;5000066;28;20461;-66
2023/08/15 11:36:06;;;;;;;6.67;4.00;;;33.20;1.00;;;;;;5008049;28;20467;-65
2023/08/15 11:38:33;;;;;;;7.30;3.33;;;32.90;1.00;;;;;;5007247;28;20472;-66
2023/08/15 11:41:02;;;;;;;6.97;3.90;;;32.60;1.00;;;;;;5003838;28;20479;-66
2023/08/15 11:43:30;;;;;;;7.40;4.27;;;32.30;1.00;;;;;;5005903;28;20460;-65
2023/08/15 11:46:01;;;;;;;8.00;4.47;;;32.10;1.00;;;;;;5006278;28;20458;-65
2023/08/15 11:48:29;;;;;;;10.90;4.40;;;31.90;1.00;;;;;;5008422;28;20518;-65
2023/08/15 11:50:56;;;;;;;10.20;4.60;;;31.70;1.00;;;;;;5006705;28;20456;-65
2023/08/15 11:53:23;;;;;;;7.80;3.73;;;31.60;1.00;;;;;;5008130;28;20971;-65
2023/08/15 11:55:50;;;;;;;7.80;4.30;;;31.40;1.00;;;;;;5014971;28;20472;-65
2023/08/15 11:58:25;;;;;;;9.70;4.50;;;31.30;1.30;;;;;;5008532;28;20480;-66
2023/08/15 12:00:55;;;;;;;8.87;4.37;;;31.20;1.50;;;;;;5002364;28;20480;-65
2023/08/15 12:03:22;;;;;;;7.37;4.17;;;31.00;1.70;;;;;;5009343;28;20491;-65
2023/08/15 12:05:53;;;;;;;6.20;3.90;;;30.90;1.20;;;;;;5009664;28;20455;-65
2023/08/15 12:08:20;;;;;;;9.03;3.90;;;30.70;1.00;;;;;;5010462;28;20479;-65
2023/08/15 12:10:47;;;;;;;7.60;3.13;;;30.70;1.00;;;;;;5007403;28;20455;-66
2023/08/15 12:13:13;;;;;;;7.67;3.47;;;30.50;1.00;;;;;;5005007;28;20467;-65
2023/08/15 12:15:41;;;;;;;7.20;3.27;;;30.40;1.00;;;;;;5014359;28;20564;-65
2023/08/15 12:18:09;;;;;;;7.93;4.37;;;30.40;1.00;;;;;;5009012;28;20483;-65
2023/08/15 12:20:36;;;;;;;8.20;3.70;;;30.30;1.40;;;;;;5009107;28;20484;-65
2023/08/15 12:23:03;;;;;;;7.57;4.20;;;30.20;1.80;;;;;;5009382;28;20838;-65
2023/08/15 12:25:30;;;;;;;7.27;4.10;;;30.10;2.20;;;;;;5006388;28;20459;-65
2023/08/15 12:27:57;;;;;;;7.40;4.20;;;30.00;2.60;;;;;;5008341;28;20909;-65
2023/08/15 12:30:23;;;;;;;10.47;4.40;;;29.90;2.70;;;;;;5009086;28;20448;-65
2023/08/15 12:32:50;;;;;;;8.90;4.57;;;29.80;3.00;;;;;;5007573;28;20491;-65
2023/08/15 12:35:18;;;;;;;9.97;4.40;;;29.80;3.50;;;;;;5008659;28;21034;-65
2023/08/15 12:37:45;;;;;;;9.43;4.53;;;29.80;3.90;;;;;;5002397;28;20471;-65
2023/08/15 12:40:12;;;;;;;9.90;4.60;;;29.70;4.10;;;;;;5005648;28;20474;-65
2023/08/15 12:42:39;;;;;;;8.23;4.03;;;29.70;4.40;;;;;;5007667;28;20482;-65
2023/08/15 12:45:07;;;;;;;12.60;4.03;;;29.70;4.50;;;;;;5005525;28;20463;-65